Time,TemperatureF,DewpointF,PressureIn,WindDirection,WindDirectionDegrees,WindSpeedMPH,WindSpeedGustMPH,Humidity,HourlyPrecipIn,Conditions,Clouds,dailyrainin,SolarRadiationWatts/m^2,SoftwareType,DateUTC
2013-06-26 00:01:00,89.0,49.0,-100.00,SW,215,9.0,17.0,25,0.00,,,0.00,0.000000,,2013-06-26 07:01:00,
2013-06-26 00:11:00,89.0,49.0,-100.00,SW,215,9.0,17.0,25,0.00,,,0.00,0.000000,,2013-06-26 07:11:00,
2013-06-26 00:21:00,89.0,49.0,-100.00,SW,215,9.0,17.0,25,0.00,,,0.00,0.000000,,2013-06-26 07:21:00,
2013-06-26 00:53:00,89.0,49.0,-100.00,SSW,211,8.0,16.0,25,0.00,,,0.00,0.000000,,2013-06-26 07:53:00,
2013-06-26 01:01:00,89.0,49.0,-100.00,SSW,211,8.0,16.0,25,0.00,,,0.00,0.000000,,2013-06-26 08:01:00,
2013-06-26 01:11:00,89.0,49.0,-100.00,SSW,211,8.0,16.0,25,0.00,,,0.00,0.000000,,2013-06-26 08:11:00,
2013-06-26 01:22:00,89.0,49.0,-100.00,SSW,211,8.0,16.0,25,0.00,,,0.00,0.000000,,2013-06-26 08:22:00,
2013-06-26 01:53:00,87.0,47.0,-100.00,SSW,212,9.0,14.0,25,0.00,,,0.00,0.000000,,2013-06-26 08:53:00,
2013-06-26 02:01:00,87.0,47.0,-100.00,SSW,212,9.0,14.0,25,0.00,,,0.00,0.000000,,2013-06-26 09:01:00,
2013-06-26 02:11:00,87.0,47.0,-100.00,SSW,212,9.0,14.0,25,0.00,,,0.00,0.000000,,2013-06-26 09:11:00,
2013-06-26 02:22:00,87.0,47.0,-100.00,SSW,212,9.0,14.0,25,0.00,,,0.00,0.000000,,2013-06-26 09:22:00,
2013-06-26 02:53:00,88.0,46.0,-100.00,SSW,203,6.0,15.0,23,0.00,,,0.00,0.000000,,2013-06-26 09:53:00,
2013-06-26 03:01:00,88.0,46.0,-100.00,SSW,203,6.0,15.0,23,0.00,,,0.00,0.000000,,2013-06-26 10:01:00,
2013-06-26 03:12:00,88.0,46.0,-100.00,SSW,203,6.0,15.0,23,0.00,,,0.00,0.000000,,2013-06-26 10:12:00,
2013-06-26 03:22:00,88.0,46.0,-100.00,SSW,203,6.0,15.0,23,0.00,,,0.00,0.000000,,2013-06-26 10:22:00,
2013-06-26 03:53:00,83.0,47.0,-100.00,SSE,160,3.0,8.0,28,0.00,,,0.00,0.000000,,2013-06-26 10:53:00,
2013-06-26 04:02:00,83.0,47.0,-100.00,SSE,160,3.0,8.0,28,0.00,,,0.00,0.000000,,2013-06-26 11:02:00,
2013-06-26 04:11:00,83.0,47.0,-100.00,SSE,160,3.0,8.0,28,0.00,,,0.00,0.000000,,2013-06-26 11:11:00,
2013-06-26 04:22:00,83.0,47.0,-100.00,SSE,160,3.0,8.0,28,0.00,,,0.00,0.000000,,2013-06-26 11:22:00,
2013-06-26 04:52:00,83.0,46.0,-100.00,SE,135,4.0,7.0,27,0.00,,,0.00,0.000000,,2013-06-26 11:52:00,
2013-06-26 05:02:00,83.0,46.0,-100.00,SE,135,4.0,7.0,27,0.00,,,0.00,0.000000,,2013-06-26 12:02:00,
2013-06-26 05:11:00,83.0,46.0,-100.00,SE,135,4.0,7.0,27,0.00,,,0.00,0.000000,,2013-06-26 12:11:00,
2013-06-26 05:22:00,83.0,46.0,-100.00,SE,135,4.0,7.0,27,0.00,,,0.00,0.000000,,2013-06-26 12:22:00,
2013-06-26 05:52:00,83.0,47.0,-100.00,East,91,3.0,7.0,29,0.00,,,0.00,0.000000,,2013-06-26 12:52:00,
2013-06-26 06:02:00,83.0,47.0,-100.00,East,91,3.0,7.0,29,0.00,,,0.00,0.000000,,2013-06-26 13:02:00,
2013-06-26 06:11:00,83.0,47.0,-100.00,East,91,3.0,7.0,29,0.00,,,0.00,0.000000,,2013-06-26 13:11:00,
2013-06-26 06:22:00,83.0,47.0,-100.00,East,91,3.0,7.0,29,0.00,,,0.00,0.000000,,2013-06-26 13:22:00,
2013-06-26 06:53:00,84.0,45.0,-100.00,SE,140,0.0,7.0,26,0.00,,,0.00,46.000000,,2013-06-26 13:53:00,
2013-06-26 07:02:00,84.0,45.0,-100.00,SE,140,0.0,7.0,26,0.00,,,0.00,46.000000,,2013-06-26 14:02:00,
2013-06-26 07:11:00,84.0,45.0,-100.00,SE,140,0.0,7.0,26,0.00,,,0.00,46.000000,,2013-06-26 14:11:00,
2013-06-26 07:23:00,84.0,45.0,-100.00,SE,140,0.0,7.0,26,0.00,,,0.00,46.000000,,2013-06-26 14:23:00,
2013-06-26 07:53:00,86.0,44.0,-100.00,South,175,1.0,9.0,23,0.00,,,0.00,212.000000,,2013-06-26 14:53:00,
2013-06-26 08:02:00,86.0,44.0,-100.00,South,175,1.0,9.0,23,0.00,,,0.00,212.000000,,2013-06-26 15:02:00,
2013-06-26 08:11:00,86.0,44.0,-100.00,South,175,1.0,9.0,23,0.00,,,0.00,212.000000,,2013-06-26 15:11:00,
2013-06-26 08:22:00,86.0,44.0,-100.00,South,175,1.0,9.0,23,0.00,,,0.00,212.000000,,2013-06-26 15:22:00,
2013-06-26 08:53:00,89.0,46.0,-100.00,South,177,5.0,9.0,23,0.00,,,0.00,429.000000,,2013-06-26 15:53:00,
2013-06-26 09:01:00,89.0,46.0,-100.00,South,177,5.0,9.0,23,0.00,,,0.00,429.000000,,2013-06-26 16:01:00,
2013-06-26 09:11:00,89.0,46.0,-100.00,South,177,5.0,9.0,23,0.00,,,0.00,429.000000,,2013-06-26 16:11:00,
2013-06-26 09:22:00,89.0,46.0,-100.00,South,177,5.0,9.0,23,0.00,,,0.00,429.000000,,2013-06-26 16:22:00,
2013-06-26 09:52:00,95.0,38.0,-100.00,SSW,207,4.0,11.0,14,0.00,,,0.00,727.000000,,2013-06-26 16:52:00,
2013-06-26 10:01:00,95.0,38.0,-100.00,SSW,207,4.0,11.0,14,0.00,,,0.00,727.000000,,2013-06-26 17:01:00,
2013-06-26 10:11:00,95.0,38.0,-100.00,SSW,207,4.0,11.0,14,0.00,,,0.00,727.000000,,2013-06-26 17:11:00,
2013-06-26 10:23:00,95.0,38.0,-100.00,SSW,207,4.0,11.0,14,0.00,,,0.00,727.000000,,2013-06-26 17:23:00,
2013-06-26 11:52:00,100.0,38.0,-100.00,SSW,197,4.0,12.0,12,0.00,,,0.00,1105.000000,,2013-06-26 18:52:00,
2013-06-26 12:01:00,100.0,38.0,-100.00,SSW,197,4.0,12.0,12,0.00,,,0.00,1105.000000,,2013-06-26 19:01:00,
2013-06-26 12:11:00,100.0,38.0,-100.00,SSW,197,4.0,12.0,12,0.00,,,0.00,1105.000000,,2013-06-26 19:11:00,
2013-06-26 12:22:00,100.0,38.0,-100.00,SSW,197,4.0,12.0,12,0.00,,,0.00,1105.000000,,2013-06-26 19:22:00,
2013-06-26 12:52:00,102.0,44.0,-100.00,West,264,6.0,15.0,14,0.00,,,0.00,1185.000000,,2013-06-26 19:52:00,
2013-06-26 13:01:00,102.0,44.0,-100.00,West,264,6.0,15.0,14,0.00,,,0.00,1185.000000,,2013-06-26 20:01:00,
2013-06-26 13:12:00,102.0,44.0,-100.00,West,264,6.0,15.0,14,0.00,,,0.00,1185.000000,,2013-06-26 20:12:00,
2013-06-26 13:22:00,102.0,44.0,-100.00,West,264,6.0,15.0,14,0.00,,,0.00,1185.000000,,2013-06-26 20:22:00,
2013-06-26 13:52:00,103.0,43.0,-100.00,SSW,205,10.0,17.0,13,0.00,,,0.00,1204.000000,,2013-06-26 20:52:00,
2013-06-26 14:02:00,103.0,43.0,-100.00,SSW,205,10.0,17.0,13,0.00,,,0.00,1204.000000,,2013-06-26 21:02:00,
2013-06-26 14:11:00,103.0,43.0,-100.00,SSW,205,10.0,17.0,13,0.00,,,0.00,1204.000000,,2013-06-26 21:11:00,
2013-06-26 14:23:00,103.0,43.0,-100.00,SSW,205,10.0,17.0,13,0.00,,,0.00,1204.000000,,2013-06-26 21:23:00,
2013-06-26 14:52:00,106.0,41.0,-100.00,SSW,200,9.0,16.0,11,0.00,,,0.00,1160.000000,,2013-06-26 21:52:00,
2013-06-26 15:01:00,106.0,41.0,-100.00,SSW,200,9.0,16.0,11,0.00,,,0.00,1160.000000,,2013-06-26 22:01:00,
2013-06-26 15:11:00,106.0,41.0,-100.00,SSW,200,9.0,16.0,11,0.00,,,0.00,1160.000000,,2013-06-26 22:11:00,
2013-06-26 15:21:00,106.0,41.0,-100.00,SSW,200,9.0,16.0,11,0.00,,,0.00,1160.000000,,2013-06-26 22:21:00,
2013-06-26 15:52:00,106.0,41.0,-100.00,SSW,206,8.0,16.0,11,0.00,,,0.00,1046.000000,,2013-06-26 22:52:00,
2013-06-26 16:01:00,106.0,41.0,-100.00,SSW,206,8.0,16.0,11,0.00,,,0.00,1046.000000,,2013-06-26 23:01:00,
2013-06-26 16:11:00,106.0,41.0,-100.00,SSW,206,8.0,16.0,11,0.00,,,0.00,1046.000000,,2013-06-26 23:11:00,
2013-06-26 16:22:00,106.0,41.0,-100.00,SSW,206,8.0,16.0,11,0.00,,,0.00,1046.000000,,2013-06-26 23:22:00,
2013-06-26 16:53:00,105.0,40.0,-100.00,SSW,210,10.0,18.0,11,0.00,,,0.00,860.000000,,2013-06-26 23:53:00,
2013-06-26 17:01:00,105.0,40.0,-100.00,SSW,210,10.0,18.0,11,0.00,,,0.00,860.000000,,2013-06-27 00:01:00,
2013-06-26 17:11:00,105.0,40.0,-100.00,SSW,210,10.0,18.0,11,0.00,,,0.00,860.000000,,2013-06-27 00:11:00,
2013-06-26 17:22:00,105.0,40.0,-100.00,SSW,210,10.0,18.0,11,0.00,,,0.00,860.000000,,2013-06-27 00:22:00,
2013-06-26 17:53:00,105.0,40.0,-100.00,SSW,204,8.0,18.0,11,0.00,,,0.00,528.000000,,2013-06-27 00:53:00,
2013-06-26 18:01:00,105.0,40.0,-100.00,SSW,204,8.0,18.0,11,0.00,,,0.00,528.000000,,2013-06-27 01:01:00,
2013-06-26 18:11:00,105.0,40.0,-100.00,SSW,204,8.0,18.0,11,0.00,,,0.00,528.000000,,2013-06-27 01:11:00,
2013-06-26 18:21:00,105.0,40.0,-100.00,SSW,204,8.0,18.0,11,0.00,,,0.00,528.000000,,2013-06-27 01:21:00,
2013-06-26 18:53:00,104.0,37.0,-100.00,SW,214,9.0,16.0,10,0.00,,,0.00,207.000000,,2013-06-27 01:53:00,
2013-06-26 19:01:00,104.0,37.0,-100.00,SW,214,9.0,16.0,10,0.00,,,0.00,207.000000,,2013-06-27 02:01:00,
2013-06-26 19:11:00,104.0,37.0,-100.00,SW,214,9.0,16.0,10,0.00,,,0.00,207.000000,,2013-06-27 02:11:00,
2013-06-26 19:22:00,104.0,37.0,-100.00,SW,214,9.0,16.0,10,0.00,,,0.00,207.000000,,2013-06-27 02:22:00,
2013-06-26 19:52:00,102.0,40.0,-100.00,SSW,207,10.0,18.0,12,0.00,,,0.00,139.000000,,2013-06-27 02:52:00,
2013-06-26 20:02:00,102.0,40.0,-100.00,SSW,207,10.0,18.0,12,0.00,,,0.00,139.000000,,2013-06-27 03:02:00,
2013-06-26 20:11:00,102.0,40.0,-100.00,SSW,207,10.0,18.0,12,0.00,,,0.00,139.000000,,2013-06-27 03:11:00,
2013-06-26 20:21:00,102.0,40.0,-100.00,SSW,207,10.0,18.0,12,0.00,,,0.00,139.000000,,2013-06-27 03:21:00,
2013-06-26 20:52:00,96.0,43.0,-100.00,SSW,204,11.0,18.0,16,0.00,,,0.00,8.000000,,2013-06-27 03:52:00,
2013-06-26 21:01:00,96.0,43.0,-100.00,SSW,204,11.0,18.0,16,0.00,,,0.00,8.000000,,2013-06-27 04:01:00,
2013-06-26 21:11:00,96.0,43.0,-100.00,SSW,204,11.0,18.0,16,0.00,,,0.00,8.000000,,2013-06-27 04:11:00,
2013-06-26 21:22:00,96.0,43.0,-100.00,SSW,204,11.0,18.0,16,0.00,,,0.00,8.000000,,2013-06-27 04:22:00,
2013-06-26 21:52:00,93.0,46.0,-100.00,SW,220,9.0,18.0,20,0.00,,,0.00,0.000000,,2013-06-27 04:52:00,
2013-06-26 22:02:00,93.0,46.0,-100.00,SW,220,9.0,18.0,20,0.00,,,0.00,0.000000,,2013-06-27 05:02:00,
2013-06-26 22:12:00,93.0,46.0,-100.00,SW,220,9.0,18.0,20,0.00,,,0.00,0.000000,,2013-06-27 05:12:00,
2013-06-26 22:21:00,93.0,46.0,-100.00,SW,220,9.0,18.0,20,0.00,,,0.00,0.000000,,2013-06-27 05:21:00,
2013-06-26 22:53:00,91.0,46.0,-100.00,SW,221,5.0,14.0,21,0.00,,,0.00,0.000000,,2013-06-27 05:53:00,
2013-06-26 23:01:00,91.0,46.0,-100.00,SW,221,5.0,14.0,21,0.00,,,0.00,0.000000,,2013-06-27 06:01:00,
2013-06-26 23:12:00,91.0,46.0,-100.00,SW,221,5.0,14.0,21,0.00,,,0.00,0.000000,,2013-06-27 06:12:00,
2013-06-26 23:22:00,91.0,46.0,-100.00,SW,221,5.0,14.0,21,0.00,,,0.00,0.000000,,2013-06-27 06:22:00,
2013-06-26 23:53:00,88.0,47.0,-100.00,South,177,1.0,9.0,24,0.00,,,0.00,0.000000,,2013-06-27 06:53:00,